Time;durP1;ratioP1;P1;durP2;ratioP2;P2;SDS_P1;SDS_P2;PMS_P1;PMS_P2;Temp;Humidity;BMP_temperature;BMP_pressure;BME280_temperature;BME280_humidity;BME280_pressure;Samples;Min_cycle;Max_cycle;Signal;HPM_P1;HPM_P2
2023/09/13 00:05:13;;;;;;;;;;;17.60;99.90;;;;;;15552096;22;20309;-87
2023/09/13 00:11:15;;;;;;;;;;;17.50;99.90;;;;;;15548398;22;20790;-85
2023/09/13 00:17:18;;;;;;;;;;;17.50;99.90;;;;;;15522993;22;20452;-85
2023/09/13 00:23:20;;;;;;;;;;;17.40;99.90;;;;;;15549209;22;19919;-84
2023/09/13 00:29:21;;;;;;;;;;;17.40;99.90;;;;;;15561597;22;19927;-84
2023/09/13 00:35:23;;;;;;;;;;;17.30;99.90;;;;;;15548295;22;19927;-85
2023/09/13 00:41:25;;;;;;;;;;;17.40;99.90;;;;;;15524561;22;20012;-85
2023/09/13 00:47:27;;;;;;;;;;;17.40;99.90;;;;;;15558167;22;19907;-85
2023/09/13 00:53:30;;;;;;;;;;;17.30;99.90;;;;;;15611416;22;20019;-85
2023/09/13 00:59:32;;;;;;;;;;;17.30;99.90;;;;;;15625833;22;19956;-85
2023/09/13 01:05:34;;;;;;;;;;;17.50;99.90;;;;;;15598199;22;19907;-86
2023/09/13 01:11:36;;;;;;;;;;;17.60;99.90;;;;;;15612133;22;19933;-85
2023/09/13 01:17:54;;;;;;;;;;;17.40;99.90;;;;;;15564149;22;19981;-85
2023/09/13 01:24:11;;;;;;;;;;;17.50;99.90;;;;;;15564316;22;19927;-86
2023/09/13 01:30:14;;;;;;;;;;;17.60;99.90;;;;;;15577685;22;19930;-85
2023/09/13 01:36:16;;;;;;;;;;;17.70;99.90;;;;;;15638451;22;19938;-85
2023/09/13 01:42:18;;;;;;;;;;;17.60;99.90;;;;;;15610012;22;19923;-85
2023/09/13 01:48:20;;;;;;;;;;;17.70;99.90;;;;;;15604419;22;20020;-85
2023/09/13 01:54:22;;;;;;;;;;;17.70;99.90;;;;;;15598990;22;19930;-85
2023/09/13 02:00:24;;;;;;;;;;;17.70;99.90;;;;;;15601108;22;19930;-85
2023/09/13 02:06:26;;;;;;;;;;;17.70;99.90;;;;;;15606939;22;20039;-85
2023/09/13 02:12:28;;;;;;;;;;;17.80;99.90;;;;;;15600654;22;19971;-85
2023/09/13 02:18:29;;;;;;;;;;;17.80;99.90;;;;;;15596276;22;19946;-85
2023/09/13 02:24:32;;;;;;;;;;;17.80;99.90;;;;;;15601023;22;19929;-86
2023/09/13 02:30:34;;;;;;;;;;;17.70;99.90;;;;;;15600289;22;19930;-85
2023/09/13 02:36:36;;;;;;;;;;;17.60;99.90;;;;;;15636133;22;19926;-86
2023/09/13 02:42:38;;;;;;;;;;;17.70;99.90;;;;;;15607145;22;19984;-86
2023/09/13 02:48:39;;;;;;;;;;;17.60;99.90;;;;;;15602799;22;19930;-86
2023/09/13 02:54:41;;;;;;;;;;;17.60;99.90;;;;;;15599118;22;19930;-86
2023/09/13 03:00:43;;;;;;;;;;;17.60;99.90;;;;;;15627043;22;19923;-87
2023/09/13 03:06:45;;;;;;;;;;;17.60;99.90;;;;;;15596758;22;19923;-87
2023/09/13 03:12:47;;;;;;;;;;;17.60;99.90;;;;;;15602444;22;20269;-87
2023/09/13 03:18:51;;;;;;;;;;;17.60;99.90;;;;;;15602811;22;19951;-87
2023/09/13 03:24:53;;;;;;;;;;;17.50;99.90;;;;;;15625282;22;19919;-87
2023/09/13 03:30:54;;;;;;;;;;;17.60;99.90;;;;;;15636254;22;20485;-87
2023/09/13 03:36:57;;;;;;;;;;;17.60;99.90;;;;;;15596966;22;19930;-87
2023/09/13 03:42:59;;;;;;;;;;;17.70;99.90;;;;;;15597767;22;20253;-87
2023/09/13 03:49:01;;;;;;;;;;;17.70;99.90;;;;;;15625758;22;19989;-88
2023/09/13 03:55:03;;;;;;;;;;;17.70;99.90;;;;;;15599273;22;19996;-86
2023/09/13 04:01:06;;;;;;;;;;;17.70;99.90;;;;;;15606542;22;19922;-86
2023/09/13 04:07:08;;;;;;;;;;;17.70;99.90;;;;;;15602548;22;19934;-86
2023/09/13 04:13:10;;;;;;;;;;;17.70;99.90;;;;;;15601984;22;19923;-85
2023/09/13 04:19:12;;;;;;;;;;;17.60;99.90;;;;;;15598271;22;19919;-86
2023/09/13 04:25:14;;;;;;;;;;;17.60;99.90;;;;;;15599786;22;19919;-87
2023/09/13 04:31:15;;;;;;;;;;;17.60;99.90;;;;;;15601269;22;20002;-87
2023/09/13 04:37:18;;;;;;;;;;;17.50;99.90;;;;;;15598708;22;20215;-87
2023/09/13 04:43:23;;;;;;;;;;;17.50;99.90;;;;;;15603198;22;20337;-87
2023/09/13 04:49:25;;;;;;;;;;;17.50;99.90;;;;;;15597980;22;20341;-87
2023/09/13 04:55:27;;;;;;;;;;;17.50;99.90;;;;;;15596300;22;20311;-87
2023/09/13 05:01:29;;;;;;;;;;;17.60;99.90;;;;;;15624421;22;19923;-87
2023/09/13 05:07:31;;;;;;;;;;;17.40;99.90;;;;;;15594365;22;19926;-88
2023/09/13 05:13:33;;;;;;;;;;;17.40;99.90;;;;;;15595017;22;19961;-88
2023/09/13 05:19:35;;;;;;;;;;;17.40;99.90;;;;;;15623425;22;19930;-88
2023/09/13 05:25:42;;;;;;;;;;;17.40;99.90;;;;;;15605807;22;20345;-88
2023/09/13 05:31:44;;;;;;;;;;;17.50;99.90;;;;;;15633772;22;20017;-88
2023/09/13 05:37:47;;;;;;;;;;;17.60;99.90;;;;;;15624936;22;20252;-88
2023/09/13 05:43:52;;;;;;;;;;;17.60;99.90;;;;;;15620432;22;19930;-88
2023/09/13 05:49:53;;;;;;;;;;;17.60;99.90;;;;;;15606295;22;19992;-88
2023/09/13 05:55:55;;;;;;;;;;;17.60;99.90;;;;;;15630253;22;19923;-89
2023/09/13 06:01:57;;;;;;;;;;;17.70;99.90;;;;;;15623825;22;19927;-87
2023/09/13 06:07:59;;;;;;;;;;;17.90;99.90;;;;;;15600666;22;19922;-87
2023/09/13 06:14:10;;;;;;;;;;;17.90;99.90;;;;;;15628931;22;19922;-87
2023/09/13 06:20:13;;;;;;;;;;;18.00;99.90;;;;;;15589820;22;19919;-88
2023/09/13 06:26:14;;;;;;;;;;;17.80;99.90;;;;;;15605464;22;19927;-84
2023/09/13 06:32:16;;;;;;;;;;;17.80;99.90;;;;;;15599338;22;20364;-88
2023/09/13 06:38:38;;;;;;;;;;;17.80;99.90;;;;;;15599155;22;20366;-88
2023/09/13 06:44:41;;;;;;;;;;;17.90;99.90;;;;;;15601571;22;20253;-88
2023/09/13 06:50:49;;;;;;;;;;;17.80;99.90;;;;;;15596350;22;20344;-88
2023/09/13 06:56:54;;;;;;;;;;;17.70;99.90;;;;;;15600721;22;20319;-87
2023/09/13 07:03:01;;;;;;;;;;;17.70;99.90;;;;;;15606613;22;19929;-86
2023/09/13 07:09:07;;;;;;;;;;;17.70;99.90;;;;;;15624806;22;20380;-88
2023/09/13 07:15:09;;;;;;;;;;;17.70;99.90;;;;;;15595330;22;19927;-87
2023/09/13 07:21:11;;;;;;;;;;;17.90;99.90;;;;;;15605421;22;20300;-87
2023/09/13 07:27:13;;;;;;;;;;;18.00;99.90;;;;;;15607509;22;19923;-85
2023/09/13 07:33:14;;;;;;;;;;;18.10;99.90;;;;;;15595328;22;19923;-87
2023/09/13 07:39:16;;;;;;;;;;;18.20;99.90;;;;;;15591733;22;20228;-84
2023/09/13 07:45:18;;;;;;;;;;;18.10;99.90;;;;;;15606319;22;19951;-86
2023/09/13 07:51:20;;;;;;;;;;;18.00;99.90;;;;;;15591138;22;19923;-86
2023/09/13 07:57:22;;;;;;;;;;;18.00;99.90;;;;;;15596563;22;19923;-84
2023/09/13 08:03:23;;;;;;;;;;;18.00;99.90;;;;;;15604949;22;20308;-85
2023/09/13 08:09:26;;;;;;;;;;;17.80;99.90;;;;;;15600443;22;19930;-85
2023/09/13 08:15:28;;;;;;;;;;;17.90;99.90;;;;;;15639150;22;19907;-85
2023/09/13 08:21:49;;;;;;;;;;;17.90;99.90;;;;;;15676945;22;19919;-84
2023/09/13 08:27:51;;;;;;;;;;;18.00;99.90;;;;;;15630762;22;19923;-84
2023/09/13 08:33:53;;;;;;;;;;;18.10;99.90;;;;;;15597274;22;19926;-83
2023/09/13 08:39:55;;;;;;;;;;;18.20;99.90;;;;;;15625490;22;19934;-83
2023/09/13 08:45:57;;;;;;;;;;;18.30;99.90;;;;;;15592521;22;19927;-84
2023/09/13 08:52:00;;;;;;;;;;;18.70;99.90;;;;;;15601321;22;20268;-87
2023/09/13 08:58:02;;;;;;;;;;;18.80;99.90;;;;;;15605162;22;19926;-86
2023/09/13 09:04:04;;;;;;;;;;;18.60;99.90;;;;;;15605757;22;19934;-85
2023/09/13 09:10:11;;;;;;;;;;;18.50;99.90;;;;;;15604923;22;19958;-85
2023/09/13 09:16:14;;;;;;;;;;;18.70;99.90;;;;;;15602747;22;20245;-84
2023/09/13 09:22:18;;;;;;;;;;;18.70;99.90;;;;;;15598196;22;19953;-84
2023/09/13 09:28:20;;;;;;;;;;;19.20;99.90;;;;;;15607185;22;19947;-86
2023/09/13 09:34:28;;;;;;;;;;;19.70;99.90;;;;;;15600044;22;19923;-85
2023/09/13 09:40:36;;;;;;;;;;;19.20;99.90;;;;;;15606795;22;19927;-85
2023/09/13 09:46:38;;;;;;;;;;;19.00;99.90;;;;;;15605979;22;20396;-84
2023/09/13 09:52:40;;;;;;;;;;;18.40;99.90;;;;;;15601936;22;19994;-84
2023/09/13 09:58:42;;;;;;;;;;;18.00;99.90;;;;;;15607211;22;19923;-84
2023/09/13 10:04:45;;;;;;;;;;;17.90;99.90;;;;;;15607177;22;19922;-83
2023/09/13 10:10:48;;;;;;;;;;;17.40;99.90;;;;;;15603782;22;20020;-84
2023/09/13 10:16:50;;;;;;;;;;;17.10;99.90;;;;;;15603244;22;19923;-87
2023/09/13 10:22:54;;;;;;;;;;;16.50;99.90;;;;;;15633465;22;20021;-90
2023/09/13 10:28:59;;;;;;;;;;;16.10;99.90;;;;;;15608378;22;19930;-89
2023/09/13 10:35:01;;;;;;;;;;;15.80;99.90;;;;;;15604057;22;20021;-91
2023/09/13 10:41:05;;;;;;;;;;;15.60;99.90;;;;;;15602563;22;20193;-89
2023/09/13 10:47:07;;;;;;;;;;;15.40;99.90;;;;;;15610451;22;19974;-90
2023/09/13 10:53:10;;;;;;;;;;;15.20;99.90;;;;;;15612139;22;19930;-89
2023/09/13 10:59:14;;;;;;;;;;;15.00;99.90;;;;;;15600799;22;19929;-89
2023/09/13 11:05:16;;;;;;;;;;;14.80;99.90;;;;;;15611955;22;19953;-87
2023/09/13 11:11:20;;;;;;;;;;;14.90;99.90;;;;;;15597690;22;19931;-88
2023/09/13 11:17:39;;;;;;;;;;;15.10;99.90;;;;;;15613648;22;19930;-88
2023/09/13 11:23:42;;;;;;;;;;;15.10;99.90;;;;;;15605724;22;19923;-87
2023/09/13 11:30:05;;;;;;;;;;;15.50;99.90;;;;;;15606990;22;20217;-87
2023/09/13 11:36:08;;;;;;;;;;;15.50;99.90;;;;;;15603126;22;19930;-87
2023/09/13 11:42:10;;;;;;;;;;;15.50;99.90;;;;;;15605829;22;20337;-87
2023/09/13 11:48:32;;;;;;;;;;;15.70;99.90;;;;;;15613235;22;19923;-86
2023/09/13 11:54:57;;;;;;;;;;;15.60;99.90;;;;;;15601623;22;19927;-86
2023/09/13 12:01:05;;;;;;;;;;;15.60;99.90;;;;;;15633663;22;19919;-87
2023/09/13 12:07:09;;;;;;;;;;;15.60;99.90;;;;;;15600284;22;20003;-87
2023/09/13 12:13:13;;;;;;;;;;;15.50;99.90;;;;;;15598867;22;20326;-87
2023/09/13 12:19:36;;;;;;;;;;;15.40;99.90;;;;;;15634152;22;19987;-87
2023/09/13 12:25:38;;;;;;;;;;;15.50;99.90;;;;;;15600255;22;19937;-88
2023/09/13 12:31:40;;;;;;;;;;;15.70;99.90;;;;;;15583399;22;19923;-87
2023/09/13 12:37:42;;;;;;;;;;;15.80;99.90;;;;;;15599923;22;19993;-87
2023/09/13 12:43:44;;;;;;;;;;;15.70;99.90;;;;;;15599777;22;20218;-86
2023/09/13 12:49:46;;;;;;;;;;;15.50;99.90;;;;;;15598690;22;19923;-87
2023/09/13 12:55:48;;;;;;;;;;;15.50;99.90;;;;;;15597253;22;19934;-87
2023/09/13 13:01:54;;;;;;;;;;;15.20;99.90;;;;;;15601987;22;19930;-87
2023/09/13 13:08:02;;;;;;;;;;;15.00;99.90;;;;;;15603569;22;19979;-87
2023/09/13 13:14:11;;;;;;;;;;;14.90;99.90;;;;;;15683005;22;19923;-86
2023/09/13 13:20:13;;;;;;;;;;;14.60;99.90;;;;;;15676460;22;19929;-86
2023/09/13 13:26:28;;;;;;;;;;;14.60;99.90;;;;;;15703100;22;19927;-86
2023/09/13 13:32:30;;;;;;;;;;;14.90;99.90;;;;;;15676938;22;19907;-85
2023/09/13 13:38:34;;;;;;;;;;;15.20;99.90;;;;;;15679320;22;19907;-86
2023/09/13 13:44:37;;;;;;;;;;;15.30;99.90;;;;;;15681699;22;19930;-85
2023/09/13 13:50:39;;;;;;;;;;;15.10;99.90;;;;;;15670986;22;20200;-85
2023/09/13 13:56:42;;;;;;;;;;;15.30;99.90;;;;;;15667536;22;19906;-85
2023/09/13 14:02:46;;;;;;;;;;;15.80;99.90;;;;;;15675756;22;19955;-84
2023/09/13 14:08:48;;;;;;;;;;;16.20;99.90;;;;;;15682109;22;20222;-85
2023/09/13 14:14:50;;;;;;;;;;;16.20;99.90;;;;;;15672307;22;19931;-85
2023/09/13 14:20:51;;;;;;;;;;;16.30;99.90;;;;;;15623667;22;19985;-84
2023/09/13 14:26:53;;;;;;;;;;;16.30;99.90;;;;;;15679197;22;19923;-86
2023/09/13 14:32:55;;;;;;;;;;;16.30;99.90;;;;;;15662627;22;19926;-85
2023/09/13 14:38:56;;;;;;;;;;;16.10;99.90;;;;;;15639574;22;19923;-85
2023/09/13 14:44:58;;;;;;;;;;;15.80;99.90;;;;;;15617812;22;19934;-85
2023/09/13 14:51:00;;;;;;;;;;;15.90;99.90;;;;;;15608851;22;19927;-86
2023/09/13 14:57:02;;;;;;;;;;;16.30;99.90;;;;;;15611817;22;19923;-85
2023/09/13 15:03:04;;;;;;;;;;;16.30;99.90;;;;;;15676366;22;19975;-86
2023/09/13 15:09:06;;;;;;;;;;;15.90;99.90;;;;;;15677572;22;19933;-86
2023/09/13 15:15:09;;;;;;;;;;;15.90;99.90;;;;;;15670387;22;19934;-86
2023/09/13 15:21:10;;;;;;;;;;;15.90;99.90;;;;;;15677148;22;19958;-87
2023/09/13 15:27:12;;;;;;;;;;;16.20;99.90;;;;;;15680046;22;19970;-88
2023/09/13 15:33:14;;;;;;;;;;;16.70;99.90;;;;;;15639142;22;19990;-87
2023/09/13 15:39:16;;;;;;;;;;;17.10;99.90;;;;;;15612442;22;19922;-86
2023/09/13 15:45:18;;;;;;;;;;;17.50;99.90;;;;;;15606968;22;20031;-87
2023/09/13 15:51:20;;;;;;;;;;;17.70;99.90;;;;;;15605317;22;20379;-87
2023/09/13 15:57:23;;;;;;;;;;;17.40;99.90;;;;;;15608818;22;20321;-86
2023/09/13 16:03:25;;;;;;;;;;;17.70;99.90;;;;;;15628906;22;20244;-86
2023/09/13 16:09:27;;;;;;;;;;;17.40;99.90;;;;;;15604770;22;19923;-86
2023/09/13 16:15:29;;;;;;;;;;;17.30;99.90;;;;;;15628362;22;19949;-86
2023/09/13 16:21:31;;;;;;;;;;;17.60;99.90;;;;;;15627300;22;19930;-85
2023/09/13 16:27:33;;;;;;;;;;;17.80;99.90;;;;;;15611414;22;19925;-86
2023/09/13 16:33:35;;;;;;;;;;;18.00;99.90;;;;;;15606424;22;20345;-86
2023/09/13 16:39:38;;;;;;;;;;;17.60;99.90;;;;;;15626028;22;19929;-86
2023/09/13 16:45:40;;;;;;;;;;;17.50;99.90;;;;;;15601932;22;19927;-86
2023/09/13 16:51:42;;;;;;;;;;;17.30;99.90;;;;;;15603212;22;20325;-86
2023/09/13 16:57:44;;;;;;;;;;;17.60;99.90;;;;;;15600745;22;19927;-85
2023/09/13 17:03:48;;;;;;;;;;;17.10;99.90;;;;;;15604573;22;19923;-86
2023/09/13 17:09:50;;;;;;;;;;;16.60;99.90;;;;;;15597447;22;19919;-86
2023/09/13 17:15:52;;;;;;;;;;;16.30;99.90;;;;;;15592801;22;20012;-86
2023/09/13 17:21:54;;;;;;;;;;;16.20;99.90;;;;;;15591364;22;19923;-86
2023/09/13 17:27:56;;;;;;;;;;;15.90;99.90;;;;;;15601662;22;19923;-86
2023/09/13 17:33:58;;;;;;;;;;;16.00;99.90;;;;;;15603411;22;19922;-86
2023/09/13 17:39:59;;;;;;;;;;;16.10;99.90;;;;;;15603280;22;19922;-85
2023/09/13 17:46:02;;;;;;;;;;;15.90;99.90;;;;;;15602518;22;19942;-86
2023/09/13 17:52:04;;;;;;;;;;;15.90;99.90;;;;;;15592939;22;19927;-87
2023/09/13 17:58:06;;;;;;;;;;;15.70;99.90;;;;;;15594868;22;19918;-87
2023/09/13 18:04:08;;;;;;;;;;;15.80;99.90;;;;;;15593469;22;19946;-85
2023/09/13 18:10:10;;;;;;;;;;;15.70;99.90;;;;;;15604540;22;19922;-86
2023/09/13 18:16:12;;;;;;;;;;;15.80;99.90;;;;;;15593919;22;20923;-87
2023/09/13 18:22:14;;;;;;;;;;;15.60;99.90;;;;;;15630686;22;19923;-87
2023/09/13 18:28:16;;;;;;;;;;;15.70;99.90;;;;;;15632443;22;20008;-87
2023/09/13 18:34:18;;;;;;;;;;;15.80;99.90;;;;;;15587512;22;20668;-87
2023/09/13 18:40:20;;;;;;;;;;;15.70;99.90;;;;;;15588910;22;19923;-87
2023/09/13 18:46:22;;;;;;;;;;;15.60;99.90;;;;;;15603420;22;19930;-87
2023/09/13 18:52:24;;;;;;;;;;;15.60;99.90;;;;;;15592740;22;19923;-86
2023/09/13 18:58:27;;;;;;;;;;;15.30;99.90;;;;;;15596855;22;20086;-86
2023/09/13 19:04:30;;;;;;;;;;;15.50;99.90;;;;;;15600301;22;20289;-86
2023/09/13 19:10:32;;;;;;;;;;;15.50;99.90;;;;;;15597774;22;20264;-86
2023/09/13 19:16:34;;;;;;;;;;;15.60;99.90;;;;;;15592803;22;19934;-86
2023/09/13 19:22:36;;;;;;;;;;;15.60;99.90;;;;;;15603320;22;20401;-86
2023/09/13 19:28:38;;;;;;;;;;;15.50;99.90;;;;;;15597511;22;19927;-86
2023/09/13 19:38:06;;;;;;;;;;;15.50;99.90;;;;;;12149696;27;11691183;-35
2023/09/13 19:44:45;;;;;;;;;;;15.20;99.90;;;;;;12515706;28;19932;-35
2023/09/13 19:51:18;;;;;;;;;;;14.90;99.90;;;;;;12530160;28;19932;-35
2023/09/13 19:57:48;;;;;;;;;;;14.90;99.90;;;;;;12527496;28;19932;-35
2023/09/13 20:04:12;;;;;;;;;;;15.10;99.90;;;;;;12529073;28;19929;-35
2023/09/13 20:10:37;;;;;;;;;;;15.20;99.90;;;;;;12525127;28;19932;-35
2023/09/13 20:17:06;;;;;;;;;;;14.90;99.90;;;;;;12509866;28;19971;-35
2023/09/13 20:23:47;;;;;;;;;;;14.90;99.90;;;;;;12525780;28;19970;-35
2023/09/13 20:30:25;;;;;;;;;;;14.90;99.90;;;;;;12500936;28;20519;-35
2023/09/13 20:36:40;;;;;;;;;;;14.90;99.90;;;;;;12469909;28;19926;-35
2023/09/13 20:42:54;;;;;;;;;;;14.90;99.90;;;;;;12464083;28;19979;-35
2023/09/13 20:49:27;;;;;;;;;;;14.90;99.90;;;;;;12429630;28;19941;-35
2023/09/13 20:56:06;;;;;;;;;;;14.60;99.90;;;;;;12430803;28;19972;-35
2023/09/13 21:02:37;;;;;;;;;;;14.60;99.90;;;;;;12437004;28;20448;-35
2023/09/13 21:09:08;;;;;;;;;;;14.60;99.90;;;;;;12431839;28;19977;-35
2023/09/13 21:15:37;;;;;;;;;;;14.60;99.90;;;;;;12439162;28;19925;-35
2023/09/13 21:22:12;;;;;;;;;;;14.60;99.90;;;;;;12434456;28;19929;-35
2023/09/13 21:28:48;;;;;;;;;;;14.60;99.90;;;;;;12433168;28;20024;-35
2023/09/13 21:35:22;;;;;;;;;;;14.50;99.90;;;;;;12430974;28;19980;-35
2023/09/13 21:41:55;;;;;;;;;;;14.40;99.90;;;;;;12434306;28;19976;-35
2023/09/13 21:48:40;;;;;;;;;;;14.30;99.90;;;;;;12427207;28;19968;-35
2023/09/13 21:55:19;;;;;;;;;;;14.30;99.90;;;;;;12430873;28;19936;-35
2023/09/13 22:01:41;;;;;;;;;;;14.20;99.90;;;;;;12432468;28;19925;-35
2023/09/13 22:08:01;;;;;;;;;;;14.20;99.90;;;;;;12430158;28;19987;-35
2023/09/13 22:14:31;;;;;;;;;;;14.10;99.90;;;;;;12431920;28;19929;-35
2023/09/13 22:21:03;;;;;;;;;;;14.00;99.90;;;;;;12423238;28;20327;-35
2023/09/13 22:27:37;;;;;;;;;;;13.90;99.90;;;;;;12430602;28;19929;-35
2023/09/13 22:34:05;;;;;;;;;;;14.00;99.90;;;;;;12424116;28;19933;-35
2023/09/13 22:40:41;;;;;;;;;;;14.00;99.90;;;;;;12425867;28;19988;-35
2023/09/13 22:47:14;;;;;;;;;;;13.90;99.90;;;;;;12435855;28;19930;-35
2023/09/13 22:53:45;;;;;;;;;;;13.80;99.90;;;;;;12423374;28;19936;-35
2023/09/13 23:00:19;;;;;;;;;;;13.50;99.90;;;;;;12419848;28;19965;-35
2023/09/13 23:06:46;;;;;;;;;;;13.60;99.90;;;;;;12429275;28;19934;-35
2023/09/13 23:13:12;;;;;;;;;;;13.50;99.90;;;;;;12427440;28;19933;-35
2023/09/13 23:19:48;;;;;;;;;;;13.30;99.90;;;;;;12425280;28;19926;-35
2023/09/13 23:26:35;;;;;;;;;;;13.40;99.90;;;;;;12428727;28;19926;-35
2023/09/13 23:33:12;;;;;;;;;;;13.30;99.90;;;;;;12420351;28;19929;-35
2023/09/13 23:39:50;;;;;;;;;;;13.30;99.90;;;;;;12422446;28;19929;-35
2023/09/13 23:46:23;;;;;;;;;;;13.30;99.90;;;;;;12422666;28;19929;-37
2023/09/13 23:53:01;;;;;;;;;;;13.30;99.90;;;;;;12425185;28;20020;-35
2023/09/13 23:59:42;;;;;;;;;;;13.10;99.90;;;;;;12423995;28;20314;-35
